This is the latest recevied weather packets stored in our database for station/object NC4M. If no packets are shown the sender has not sent any weather packets the latest 10 day(s).
| Time | Temp. | Humidity | Pressure | Rain* | Wind** | Luminosity | Snow |
|---|---|---|---|---|---|---|---|
| 1777983890 | 10.56° C | 90% | 1008.2 hPa | 0 mm | - | 35 W/m² | - |
| 1777983586 | 10° C | 90% | 1008.4 hPa | 0 mm | - | 32 W/m² | - |
| 1777983283 | 10° C | 89% | 1008.4 hPa | 0 mm | - | 37 W/m² | - |
| 1777982979 | 10° C | 89% | 1008.4 hPa | 0 mm | - | 22 W/m² | - |
| 1777982676 | 10° C | 89% | 1008.4 hPa | 0 mm | - | 16 W/m² | - |
| 1777982375 | 10.56° C | 89% | 1008.6 hPa | 0 mm | - | 17 W/m² | - |
| 1777982072 | 10.56° C | 89% | 1008.7 hPa | 0 mm | - | 14 W/m² | - |
| 1777981769 | 10.56° C | 89% | 1008.9 hPa | 0 mm | - | 13 W/m² | - |
| 1777981465 | 10.56° C | 89% | 1008.6 hPa | 0 mm | - | 10 W/m² | - |
| 1777981161 | 10.56° C | 90% | 1008.2 hPa | 0 mm | - | 7 W/m² | - |
| 1777980859 | 10.56° C | 89% | 1008.2 hPa | 0 mm | - | 7 W/m² | - |
| 1777980554 | 10.56° C | 89% | 1008.1 hPa | 1.78 mm | - | 6 W/m² | - |
| 1777980253 | 10.56° C | 89% | 1008.4 hPa | 1.78 mm | - | 3 W/m² | - |
| 1777979948 | 11.11° C | 89% | 1008.4 hPa | 0 mm | - | 2 W/m² | - |
| 1777979643 | 11.11° C | 88% | 1008.5 hPa | 0 mm | - | 1 W/m² | - |
| 1777979339 | 11.67° C | 88% | 1008.6 hPa | 1.78 mm | - | 1 W/m² | - |
| 1777979037 | 11.67° C | 87% | 1008.5 hPa | 3.05 mm | - | 0 W/m² | - |
| 1777978733 | 12.22° C | 88% | 1008.6 hPa | 3.05 mm | - | 0 W/m² | - |
| 1777978429 | 12.78° C | 89% | 1008.7 hPa | 3.05 mm | - | 0 W/m² | - |
| 1777978126 | 13.33° C | 88% | 1008.7 hPa | 3.05 mm | - | 0 W/m² | - |
| 1777977824 | 13.89° C | 86% | 1008.6 hPa | 4.83 mm | - | 0 W/m² | - |
| 1777977519 | 15° C | 86% | 1008.3 hPa | 19.81 mm | - | 0 W/m² | - |
| 1777977217 | 15.56° C | 86% | 1007.8 hPa | 30.73 mm | - | 0 W/m² | - |
| 1777976914 | 16.11° C | 83% | 1007.5 hPa | 12.7 mm | - | 0 W/m² | - |
| 1777976612 | 17.22° C | 77% | 1007.1 hPa | 1.78 mm | - | 0 W/m² | - |
* Rain latest hour (hover to see other rain measurements)
** Current wind speed in m/s (hover to see current wind gust speed)